Shartlesville, Pennsylvania
Current Conditions -  °F | °C
As of 9:54 PM on Wednesday 26 Nov 2014 (Local Time) from KRDG Reporting Station
Overcast Overcast  
Wind Chill: 29°   Ceiling: 5000
Heat Index: 36°   Visibility: 10mi
Dew Point: 30°   Wind: 9mph
Humidity: 79%   Direction: 340°NNW
Pressure: 29.9"   Gusts: NA
Location:  40.51°N, 76.1°W
Report Text: KRDG 270254Z 34008KT 10SM BKN050 OVC100 02/M01 A2990 RMK AO2 UPB28E38 SLP132 P0002 60005 T00221011 56006
Loading
Personal Weather Stations






























Interactive Weather Map New forecast layout! Learn more

10-Day Weather Forecast

Advertisements
Track Severe Weather on mobile